createdAt,value
2022-11-18T00:02:50.371Z,1.10
2022-11-18T00:07:53.977Z,0.88
2022-11-18T00:13:15.757Z,1.00
2022-11-18T00:18:20.765Z,0.95
2022-11-18T00:23:24.440Z,1.08
2022-11-18T00:28:28.181Z,1.25
2022-11-18T00:33:37.095Z,1.00
2022-11-18T00:38:41.498Z,1.00
2022-11-18T00:43:45.124Z,1.02
2022-11-18T00:48:50.136Z,0.85
2022-11-18T00:53:54.935Z,1.00
2022-11-18T00:58:58.674Z,1.00
2022-11-18T01:04:03.690Z,1.10
2022-11-18T01:09:07.365Z,1.00
2022-11-18T01:14:11.100Z,1.10
2022-11-18T01:19:18.060Z,1.10
2022-11-18T01:24:21.771Z,1.00
2022-11-18T01:29:25.971Z,1.00
2022-11-18T01:34:31.301Z,1.10
2022-11-18T01:39:34.965Z,1.02
2022-11-18T01:45:09.875Z,1.00
2022-11-18T01:50:20.363Z,1.10
2022-11-18T01:55:31.001Z,1.00
2022-11-18T02:00:35.291Z,0.93
2022-11-18T02:05:41.744Z,0.80
2022-11-18T02:10:45.509Z,1.00
2022-11-18T02:16:00.195Z,0.80
2022-11-18T02:21:23.027Z,0.93
2022-11-18T02:27:38.583Z,1.02
2022-11-18T02:32:51.459Z,0.80
2022-11-18T02:38:01.703Z,0.90
2022-11-18T02:43:11.292Z,0.90
2022-11-18T02:48:18.050Z,1.05
2022-11-18T02:53:24.896Z,0.90
2022-11-18T02:58:28.677Z,0.80
2022-11-18T03:03:36.325Z,0.90
2022-11-18T03:14:08.567Z,1.02
2022-11-18T03:19:22.998Z,1.00
2022-11-18T03:24:33.256Z,0.90
2022-11-18T03:29:43.816Z,0.80
2022-11-18T03:34:53.096Z,0.90
2022-11-18T03:40:05.688Z,0.90
2022-11-18T03:45:17.822Z,0.73
2022-11-18T03:50:28.763Z,0.90
2022-11-18T03:55:37.827Z,0.75
2022-11-18T04:00:46.340Z,0.85
2022-11-18T04:05:58.649Z,0.90
2022-11-18T04:11:10.293Z,0.80
2022-11-18T04:16:13.940Z,0.80
2022-11-18T04:21:18.993Z,0.90
2022-11-18T04:26:22.643Z,0.80
2022-11-18T04:31:26.294Z,0.80
2022-11-18T04:36:31.474Z,0.80
2022-11-18T04:41:52.603Z,0.80
2022-11-18T04:46:59.218Z,0.82
2022-11-18T04:52:05.321Z,0.73
2022-11-18T04:57:09.492Z,0.80
2022-11-18T05:02:14.212Z,0.70
2022-11-18T05:07:19.762Z,0.80
2022-11-18T05:12:40.757Z,0.70
2022-11-18T05:17:44.935Z,0.80
2022-11-18T05:22:49.988Z,0.75
2022-11-18T05:27:53.610Z,0.63
2022-11-18T05:32:58.558Z,0.80
2022-11-18T05:38:04.779Z,0.80
2022-11-18T05:43:12.596Z,0.70
2022-11-18T05:53:24.642Z,0.80
2022-11-18T05:58:29.231Z,0.70
2022-11-18T06:03:39.095Z,0.70
2022-11-18T06:08:49.351Z,0.73
2022-11-18T06:14:00.998Z,0.80
2022-11-18T06:19:05.254Z,0.60
2022-11-18T06:24:11.120Z,0.80
2022-11-18T06:29:21.750Z,0.80
2022-11-18T06:34:29.628Z,0.80
2022-11-18T06:39:34.536Z,0.70
2022-11-18T06:44:38.236Z,0.70
2022-11-18T06:49:41.994Z,0.70
2022-11-18T06:54:47.266Z,0.70
2022-11-18T06:59:50.804Z,0.70
2022-11-18T07:04:54.286Z,0.80
2022-11-18T07:10:00.281Z,0.70
2022-11-18T07:15:03.826Z,0.80
2022-11-18T07:20:09.471Z,1.00
2022-11-18T07:25:15.415Z,0.82
2022-11-18T07:30:19.701Z,0.90
2022-11-18T07:35:23.389Z,1.23
2022-11-18T07:40:28.445Z,1.20
2022-11-18T07:45:32.217Z,1.58
2022-11-18T07:50:36.104Z,1.35
2022-11-18T07:55:41.277Z,2.53
2022-11-18T08:00:44.981Z,15.10
2022-11-18T08:05:48.783Z,18.92
2022-11-18T08:10:56.707Z,17.15
2022-11-18T08:16:05.524Z,16.98
2022-11-18T08:21:09.414Z,15.73
2022-11-18T08:26:17.034Z,14.77
2022-11-18T08:36:31.554Z,13.17
2022-11-18T08:41:40.730Z,12.40
2022-11-18T08:46:45.691Z,11.50
2022-11-18T08:51:49.630Z,10.05
2022-11-18T08:56:54.645Z,10.38
2022-11-18T09:01:58.282Z,9.73
2022-11-18T09:07:03.241Z,8.48
2022-11-18T09:12:09.290Z,8.25
2022-11-18T09:17:14.353Z,7.57
2022-11-18T09:22:18.072Z,7.13
2022-11-18T09:27:23.632Z,7.00
2022-11-18T09:32:27.281Z,7.03
2022-11-18T09:37:30.872Z,7.03
2022-11-18T09:42:53.480Z,7.22
2022-11-18T09:48:03.212Z,6.65
2022-11-18T09:53:20.624Z,6.82
2022-11-18T09:58:34.871Z,7.15
2022-11-18T10:03:40.808Z,7.00
2022-11-18T10:09:01.904Z,6.63
2022-11-18T10:14:24.493Z,6.55
2022-11-18T10:19:35.829Z,6.28
2022-11-18T10:24:44.527Z,6.20
2022-11-18T10:29:56.530Z,6.38
2022-11-18T10:35:00.792Z,6.18
2022-11-18T10:40:08.416Z,6.20
2022-11-18T10:45:27.732Z,5.53
2022-11-18T10:50:35.877Z,5.57
2022-11-18T10:55:39.958Z,6.30
2022-11-18T11:00:49.442Z,5.82
2022-11-18T11:06:42.187Z,5.55
2022-11-18T11:12:01.321Z,5.53
2022-11-18T11:17:14.012Z,5.82
2022-11-18T11:22:18.835Z,5.40
2022-11-18T11:33:34.918Z,5.18
2022-11-18T11:39:04.662Z,4.85
2022-11-18T11:44:34.226Z,4.85
2022-11-18T11:49:54.520Z,4.75
2022-11-18T11:55:20.379Z,4.82
2022-11-18T12:00:25.357Z,4.50
2022-11-18T12:05:36.164Z,4.32
2022-11-18T12:10:47.988Z,3.97
2022-11-18T12:16:15.251Z,3.90
2022-11-18T12:22:03.940Z,3.83
2022-11-18T12:27:15.302Z,3.55
2022-11-18T12:32:42.265Z,3.67
2022-11-18T12:38:03.172Z,3.60
2022-11-18T12:43:27.833Z,3.40
2022-11-18T12:48:41.785Z,3.33
2022-11-18T12:53:49.432Z,3.35
2022-11-18T12:58:56.091Z,3.10
2022-11-18T13:04:11.077Z,3.38
2022-11-18T13:09:20.785Z,3.40
2022-11-18T13:14:48.245Z,2.90
2022-11-18T13:19:58.620Z,2.90
2022-11-18T13:25:03.902Z,3.17
2022-11-18T13:30:12.943Z,2.72
2022-11-18T13:35:20.341Z,3.03
2022-11-18T13:40:30.473Z,2.80
2022-11-18T13:45:36.129Z,2.50
2022-11-18T13:50:44.166Z,2.60
2022-11-18T13:55:54.817Z,2.58
2022-11-18T14:01:02.234Z,2.20
2022-11-18T14:06:06.207Z,2.13
2022-11-18T14:11:12.586Z,2.28
2022-11-18T14:16:35.984Z,2.17
2022-11-18T14:21:39.821Z,2.10
2022-11-18T14:26:44.846Z,2.08
2022-11-18T14:32:15.512Z,2.25
2022-11-18T14:37:19.043Z,2.00
2022-11-18T14:42:24.455Z,1.88
2022-11-18T14:47:32.173Z,2.10
2022-11-18T14:57:40.556Z,2.30
2022-11-18T15:02:44.228Z,1.85
2022-11-18T15:07:47.941Z,1.67
2022-11-18T15:12:53.262Z,2.10
2022-11-18T15:17:56.880Z,1.80
2022-11-18T15:23:00.485Z,2.00
2022-11-18T15:28:06.321Z,1.88
2022-11-18T15:33:10.046Z,1.73
2022-11-18T15:38:13.653Z,1.60
2022-11-18T15:43:18.679Z,1.83
2022-11-18T15:48:22.315Z,1.55
2022-11-18T15:53:25.939Z,1.58
2022-11-18T15:58:35.691Z,1.60
2022-11-18T16:03:39.959Z,1.70
2022-11-18T16:08:43.584Z,1.55
2022-11-18T16:13:48.727Z,1.60
2022-11-18T16:18:56.241Z,1.35
2022-11-18T16:24:02.938Z,1.50
2022-11-18T16:29:09.195Z,1.33
2022-11-18T16:34:15.581Z,1.40
2022-11-18T16:39:23.679Z,1.20
2022-11-18T16:44:29.043Z,1.23
2022-11-18T16:49:32.747Z,1.40
2022-11-18T16:54:42.925Z,1.30
2022-11-18T16:59:50.277Z,1.30
2022-11-18T17:04:53.940Z,1.38
2022-11-18T17:09:57.616Z,1.40
2022-11-18T17:15:02.739Z,1.30
2022-11-18T17:20:08.136Z,1.30
2022-11-18T17:25:11.791Z,1.25
2022-11-18T17:30:17.950Z,1.40
2022-11-18T17:35:21.493Z,1.30
2022-11-18T17:40:25.061Z,1.08
2022-11-18T17:45:30.048Z,1.15
2022-11-18T17:50:33.624Z,1.10
2022-11-18T17:55:37.512Z,1.23
2022-11-18T18:00:42.486Z,1.00
2022-11-18T18:05:46.084Z,1.00
2022-11-18T18:10:49.563Z,1.05
2022-11-18T18:16:02.776Z,0.90
2022-11-18T18:21:12.673Z,1.20
2022-11-18T18:26:16.883Z,1.20
2022-11-18T18:31:22.828Z,1.10
2022-11-18T18:36:26.632Z,0.90
2022-11-18T18:41:30.591Z,0.88
2022-11-18T18:46:37.808Z,1.25
2022-11-18T18:51:43.639Z,1.10
2022-11-18T18:56:47.736Z,1.05
2022-11-18T19:01:52.936Z,1.17
2022-11-18T19:06:59.779Z,1.30
2022-11-18T19:12:22.717Z,1.13
2022-11-18T19:17:28.032Z,1.08
2022-11-18T19:22:34.753Z,1.00
2022-11-18T19:27:40.189Z,1.08
2022-11-18T19:32:46.059Z,1.10
2022-11-18T19:37:50.043Z,1.15
2022-11-18T19:42:55.082Z,1.13
2022-11-18T19:48:01.811Z,1.00
2022-11-18T19:53:25.484Z,1.10
2022-11-18T19:58:29.305Z,0.90
2022-11-18T20:03:34.225Z,1.13
2022-11-18T20:08:39.798Z,1.00
2022-11-18T20:13:45.550Z,1.05
2022-11-18T20:18:55.811Z,1.30
2022-11-18T20:24:02.335Z,1.10
2022-11-18T20:29:06.986Z,1.20
2022-11-18T20:34:14.991Z,1.20
2022-11-18T20:39:19.263Z,1.20
2022-11-18T20:44:23.237Z,1.30
2022-11-18T20:49:28.338Z,1.20
2022-11-18T20:54:31.934Z,1.30
2022-11-18T20:59:35.655Z,1.30
2022-11-18T21:04:41.011Z,1.20
2022-11-18T21:09:45.284Z,1.10
2022-11-18T21:14:49.308Z,1.10
2022-11-18T21:19:54.301Z,1.42
2022-11-18T21:24:57.951Z,1.48
2022-11-18T21:30:01.853Z,1.17
2022-11-18T21:35:08.282Z,1.38
2022-11-18T21:40:14.136Z,1.20
2022-11-18T21:45:18.300Z,1.17
2022-11-18T21:50:23.347Z,1.17
2022-11-18T21:55:27.105Z,1.20
2022-11-18T22:00:30.895Z,1.10
2022-11-18T22:05:36.280Z,1.20
2022-11-18T22:10:39.924Z,1.20
2022-11-18T22:15:43.519Z,1.30
2022-11-18T22:20:48.810Z,1.40
2022-11-18T22:25:58.265Z,1.08
2022-11-18T22:31:05.749Z,1.70
2022-11-18T22:36:14.100Z,1.60
2022-11-18T22:41:34.944Z,1.90
2022-11-18T22:46:40.362Z,2.03
2022-11-18T22:51:45.270Z,2.05
2022-11-18T22:56:49.011Z,2.00
2022-11-18T23:01:53.345Z,2.10
2022-11-18T23:06:58.399Z,2.00
2022-11-18T23:12:19.688Z,2.33
2022-11-18T23:17:23.262Z,2.30
2022-11-18T23:22:28.298Z,2.50
2022-11-18T23:27:31.900Z,2.28
2022-11-18T23:32:35.444Z,2.33
2022-11-18T23:37:40.557Z,2.22
2022-11-18T23:42:44.114Z,2.38
2022-11-18T23:47:47.706Z,2.38
2022-11-18T23:52:52.593Z,2.20
2022-11-18T23:57:57.687Z,2.08
